Time;durP1;ratioP1;P1;durP2;ratioP2;P2;SDS_P1;SDS_P2;PMS_P1;PMS_P2;Temp;Humidity;BMP_temperature;BMP_pressure;BME280_temperature;BME280_humidity;BME280_pressure;Samples;Min_cycle;Max_cycle;Signal;HPM_P1;HPM_P2
2023/12/22 00:01:20;;;;;;;0.50;0.40;;;8.50;99.90;;;;;;4921380;29;20051;-80
2023/12/22 00:03:46;;;;;;;2.05;0.90;;;8.40;99.90;;;;;;4920380;29;20078;-81
2023/12/22 00:06:12;;;;;;;2.88;0.60;;;8.40;99.90;;;;;;4920275;29;20039;-76
2023/12/22 00:08:38;;;;;;;6.13;0.60;;;8.40;99.90;;;;;;4920303;29;20042;-77
2023/12/22 00:11:04;;;;;;;3.65;0.70;;;8.50;99.90;;;;;;4920119;29;20154;-79
2023/12/22 00:13:30;;;;;;;2.95;1.02;;;8.60;99.90;;;;;;4921006;29;20514;-81
2023/12/22 00:15:55;;;;;;;2.10;0.55;;;8.60;99.90;;;;;;4917495;29;20035;-78
2023/12/22 00:18:21;;;;;;;0.93;0.63;;;8.60;99.90;;;;;;4920262;29;20710;-81
2023/12/22 00:20:47;;;;;;;5.40;0.98;;;8.60;99.90;;;;;;4957628;29;20059;-78
2023/12/22 00:23:12;;;;;;;5.72;1.23;;;8.60;99.90;;;;;;4942109;29;20042;-83
2023/12/22 00:25:38;;;;;;;6.75;1.33;;;8.70;99.90;;;;;;4965077;29;20031;-81
2023/12/22 00:28:04;;;;;;;5.65;1.25;;;8.70;99.90;;;;;;4955771;29;20102;-80
2023/12/22 00:30:29;;;;;;;1.67;0.90;;;8.70;99.90;;;;;;4955873;29;20468;-81
2023/12/22 00:32:55;;;;;;;4.28;1.55;;;8.60;99.90;;;;;;4956813;29;20024;-81
2023/12/22 00:35:21;;;;;;;5.50;1.58;;;8.50;99.90;;;;;;4960026;29;20034;-82
2023/12/22 00:37:47;;;;;;;3.70;0.88;;;8.60;99.90;;;;;;4938999;29;20016;-82
2023/12/22 00:40:12;;;;;;;2.15;1.10;;;8.50;99.90;;;;;;4945560;29;20028;-82
2023/12/22 00:42:38;;;;;;;3.15;0.73;;;8.60;99.90;;;;;;4961159;29;20170;-81
2023/12/22 00:45:04;;;;;;;2.20;0.88;;;8.50;99.90;;;;;;4940707;29;20071;-81
2023/12/22 00:47:30;;;;;;;2.55;1.25;;;8.30;99.90;;;;;;4955658;29;20054;-80
2023/12/22 00:49:56;;;;;;;1.45;0.98;;;8.10;99.90;;;;;;4953240;29;20372;-80
2023/12/22 00:52:23;;;;;;;6.05;1.20;;;8.10;99.90;;;;;;4938904;29;20031;-79
2023/12/22 00:54:49;;;;;;;4.60;1.58;;;8.00;99.90;;;;;;4935835;29;20043;-77
2023/12/22 00:57:15;;;;;;;3.85;1.23;;;8.00;99.90;;;;;;4935390;29;20100;-78
2023/12/22 00:59:47;;;;;;;3.25;1.10;;;8.10;99.90;;;;;;4937010;29;20074;-80
2023/12/22 01:02:14;;;;;;;3.63;1.58;;;8.20;99.90;;;;;;4953469;29;20035;-79
2023/12/22 01:04:39;;;;;;;3.70;1.60;;;8.20;99.90;;;;;;4952854;29;20020;-80
2023/12/22 01:07:07;;;;;;;6.80;1.77;;;8.30;99.90;;;;;;4952815;29;20098;-79
2023/12/22 01:09:34;;;;;;;6.07;1.23;;;8.40;99.90;;;;;;4956603;29;20480;-80
2023/12/22 01:12:02;;;;;;;4.47;1.30;;;8.50;99.90;;;;;;4955680;28;20035;-79
2023/12/22 01:14:28;;;;;;;8.57;1.20;;;8.40;99.90;;;;;;4956909;29;20015;-78
2023/12/22 01:16:53;;;;;;;7.78;1.17;;;8.20;99.90;;;;;;4955167;29;20158;-79
2023/12/22 01:19:19;;;;;;;5.30;1.38;;;8.20;99.90;;;;;;4939147;29;20038;-79
2023/12/22 01:21:45;;;;;;;6.55;0.80;;;8.10;99.90;;;;;;4954965;29;20027;-80
2023/12/22 01:24:11;;;;;;;3.80;0.80;;;8.00;99.90;;;;;;4957144;29;20039;-79
2023/12/22 01:26:36;;;;;;;6.15;0.90;;;8.00;99.90;;;;;;4937626;29;20039;-79
2023/12/22 01:29:02;;;;;;;5.18;0.95;;;8.00;99.90;;;;;;4955387;29;20023;-79
2023/12/22 01:31:28;;;;;;;0.63;0.63;;;7.90;99.90;;;;;;4937951;29;20224;-79
2023/12/22 01:33:54;;;;;;;6.75;1.52;;;8.00;99.90;;;;;;4937634;29;20055;-79
2023/12/22 01:36:19;;;;;;;9.05;2.22;;;8.00;99.90;;;;;;4938119;29;20038;-79
2023/12/22 01:38:45;;;;;;;1.60;0.73;;;8.00;99.90;;;;;;4954617;29;20671;-78
2023/12/22 01:41:11;;;;;;;7.57;1.42;;;7.90;99.90;;;;;;4949926;29;20027;-77
2023/12/22 01:43:37;;;;;;;3.80;1.30;;;7.90;99.90;;;;;;4955351;29;20033;-79
2023/12/22 01:46:03;;;;;;;1.80;0.82;;;7.90;99.90;;;;;;4944798;29;20122;-77
2023/12/22 01:48:30;;;;;;;9.63;0.80;;;7.80;99.90;;;;;;4941148;29;20031;-79
2023/12/22 01:50:58;;;;;;;5.78;0.52;;;7.70;99.90;;;;;;4962120;29;20027;-79
2023/12/22 01:53:41;;;;;;;5.88;1.20;;;7.60;99.90;;;;;;4962636;29;20023;-79
2023/12/22 01:56:13;;;;;;;1.92;0.40;;;7.60;99.90;;;;;;4963577;29;20601;-78
2023/12/22 01:58:41;;;;;;;2.42;1.02;;;7.50;99.90;;;;;;4942908;29;20820;-79
2023/12/22 02:01:08;;;;;;;3.20;1.23;;;7.40;99.90;;;;;;4943501;29;20038;-78
2023/12/22 02:03:43;;;;;;;3.47;0.60;;;7.40;99.90;;;;;;4963842;29;20020;-79
2023/12/22 02:06:10;;;;;;;2.45;0.70;;;7.40;99.90;;;;;;4944833;29;20035;-78
2023/12/22 02:08:38;;;;;;;2.15;0.85;;;7.30;99.90;;;;;;4945765;29;20047;-83
2023/12/22 02:11:08;;;;;;;1.30;0.30;;;7.40;99.90;;;;;;4963027;29;20051;-79
2023/12/22 02:13:37;;;;;;;1.40;1.02;;;7.40;99.90;;;;;;4962700;29;20512;-78
2023/12/22 02:16:21;;;;;;;2.72;1.00;;;7.40;99.90;;;;;;4939195;29;20432;-78
2023/12/22 02:18:57;;;;;;;5.13;0.93;;;7.40;99.90;;;;;;4941434;29;20050;-78
2023/12/22 02:21:23;;;;;;;6.43;1.63;;;7.40;99.90;;;;;;4937521;29;20114;-79
2023/12/22 02:23:49;;;;;;;0.90;0.80;;;7.40;99.90;;;;;;4953758;28;20110;-79
2023/12/22 02:26:27;;;;;;;9.00;1.02;;;7.40;99.90;;;;;;4954057;29;20039;-78
2023/12/22 02:28:58;;;;;;;1.23;0.65;;;7.40;99.90;;;;;;4936607;29;20027;-79
2023/12/22 02:31:49;;;;;;;;;;;;;;;;;;;;;
2023/12/22 02:34:22;;;;;;;3.70;0.95;;;7.40;99.90;;;;;;4953876;29;20019;-78
2023/12/22 02:36:50;;;;;;;5.47;1.20;;;7.40;99.90;;;;;;4937755;29;20023;-78
2023/12/22 02:39:18;;;;;;;8.45;2.08;;;7.40;99.90;;;;;;4953890;29;20031;-78
2023/12/22 02:41:45;;;;;;;5.53;0.98;;;7.30;99.90;;;;;;4954010;29;20020;-78
2023/12/22 02:44:11;;;;;;;1.92;0.60;;;7.40;99.90;;;;;;4954037;29;20031;-79
2023/12/22 02:46:37;;;;;;;4.68;1.20;;;7.40;99.90;;;;;;4954073;29;20046;-78
2023/12/22 02:49:02;;;;;;;4.38;1.40;;;7.40;99.90;;;;;;4953664;29;20038;-79
2023/12/22 02:51:28;;;;;;;7.03;1.20;;;7.50;99.90;;;;;;4954644;29;20627;-78
2023/12/22 02:53:54;;;;;;;10.65;2.25;;;7.60;99.90;;;;;;4953528;29;20050;-78
2023/12/22 02:56:20;;;;;;;2.05;1.23;;;7.60;99.90;;;;;;4953179;29;20028;-79
2023/12/22 02:58:45;;;;;;;8.40;1.83;;;7.70;99.90;;;;;;4954097;29;20034;-78
2023/12/22 03:01:11;;;;;;;1.92;1.17;;;7.70;99.90;;;;;;4953721;29;20114;-79
2023/12/22 03:03:37;;;;;;;1.30;0.77;;;7.70;99.90;;;;;;4953451;29;20027;-78
2023/12/22 03:06:03;;;;;;;9.48;2.58;;;7.70;99.90;;;;;;4936190;29;20554;-79
2023/12/22 03:08:28;;;;;;;4.90;1.23;;;7.70;99.90;;;;;;4935950;29;20031;-77
2023/12/22 03:10:54;;;;;;;5.60;1.88;;;7.60;99.90;;;;;;4935468;29;20051;-79
2023/12/22 03:13:20;;;;;;;3.60;1.33;;;7.50;99.90;;;;;;4951948;29;20023;-79
2023/12/22 03:15:47;;;;;;;7.97;1.63;;;7.40;99.90;;;;;;4935471;29;20043;-78
2023/12/22 03:18:12;;;;;;;7.53;1.98;;;7.30;99.90;;;;;;4953291;29;20643;-78
2023/12/22 03:20:38;;;;;;;5.43;1.15;;;7.30;99.90;;;;;;4935571;29;20118;-79
2023/12/22 03:23:04;;;;;;;6.40;1.30;;;7.20;99.90;;;;;;4936032;29;20030;-78
2023/12/22 03:25:30;;;;;;;2.65;0.98;;;7.20;99.90;;;;;;4935788;29;20035;-79
2023/12/22 03:27:56;;;;;;;0.52;0.43;;;7.10;99.90;;;;;;4953451;29;20031;-79
2023/12/22 03:30:22;;;;;;;3.90;1.15;;;7.10;99.90;;;;;;4935890;29;20485;-78
2023/12/22 03:32:51;;;;;;;1.80;0.47;;;7.00;99.90;;;;;;4935663;29;20066;-78
2023/12/22 03:35:26;;;;;;;1.67;0.82;;;7.00;99.90;;;;;;4935065;29;20038;-79
2023/12/22 03:37:52;;;;;;;3.70;1.63;;;6.90;99.90;;;;;;4953296;29;20057;-79
2023/12/22 03:40:21;;;;;;;7.07;1.30;;;6.90;99.90;;;;;;4952833;29;20027;-78
2023/12/22 03:42:50;;;;;;;3.10;1.10;;;6.80;99.90;;;;;;4952937;29;20507;-78
2023/12/22 03:45:15;;;;;;;5.27;1.67;;;6.70;99.90;;;;;;4952833;29;20045;-78
2023/12/22 03:47:41;;;;;;;8.68;0.85;;;6.70;99.90;;;;;;4935497;29;20523;-78
2023/12/22 03:50:08;;;;;;;0.98;0.38;;;6.70;99.90;;;;;;4953016;29;20030;-78
2023/12/22 03:52:34;;;;;;;0.98;0.85;;;6.80;99.90;;;;;;4935668;29;20032;-79
2023/12/22 03:55:00;;;;;;;2.92;0.68;;;6.80;99.90;;;;;;4935374;29;20655;-78
2023/12/22 03:57:29;;;;;;;10.63;2.17;;;6.90;99.90;;;;;;4935729;29;20031;-79
2023/12/22 03:59:58;;;;;;;4.78;1.00;;;7.00;99.90;;;;;;4935678;29;20151;-78
2023/12/22 04:02:24;;;;;;;4.55;1.45;;;7.10;99.90;;;;;;4952832;29;20027;-79
2023/12/22 04:04:49;;;;;;;15.48;1.73;;;7.20;99.90;;;;;;4952294;29;20042;-79
2023/12/22 04:07:15;;;;;;;6.75;1.42;;;7.10;99.90;;;;;;4935176;29;20314;-78
2023/12/22 04:09:41;;;;;;;11.90;2.63;;;7.20;99.90;;;;;;4934775;29;20517;-78
2023/12/22 04:12:07;;;;;;;9.80;1.42;;;7.20;99.90;;;;;;4952286;29;20038;-78
2023/12/22 04:14:32;;;;;;;8.35;1.80;;;7.20;99.90;;;;;;4953060;29;20562;-79
2023/12/22 04:17:01;;;;;;;11.27;1.23;;;7.10;99.90;;;;;;4935472;29;20030;-79
2023/12/22 04:19:27;;;;;;;8.55;2.05;;;7.00;99.90;;;;;;4931537;29;20023;-78
2023/12/22 04:21:53;;;;;;;10.23;2.53;;;7.00;99.90;;;;;;4934431;29;20057;-79
2023/12/22 04:24:19;;;;;;;6.20;2.10;;;7.00;99.90;;;;;;4934903;29;20373;-79
2023/12/22 04:26:44;;;;;;;6.60;1.75;;;7.00;99.90;;;;;;4934583;29;20058;-77
2023/12/22 04:29:10;;;;;;;15.88;2.83;;;7.10;99.90;;;;;;4935406;29;20480;-78
2023/12/22 04:31:36;;;;;;;4.32;1.38;;;7.10;99.90;;;;;;4952494;29;20503;-78
2023/12/22 04:34:05;;;;;;;6.53;2.35;;;7.10;99.90;;;;;;4935079;29;20031;-79
2023/12/22 04:36:31;;;;;;;4.20;0.80;;;7.20;99.90;;;;;;4952544;29;20031;-79
2023/12/22 04:38:56;;;;;;;8.20;2.22;;;7.30;99.90;;;;;;4934776;29;20482;-79
2023/12/22 04:41:22;;;;;;;2.53;0.82;;;7.40;99.90;;;;;;4951022;29;20233;-78
2023/12/22 04:43:51;;;;;;;5.88;1.70;;;7.50;99.90;;;;;;4951994;29;20098;-79
2023/12/22 04:46:17;;;;;;;7.80;1.50;;;7.50;99.90;;;;;;4937419;29;20250;-78
2023/12/22 04:48:43;;;;;;;6.20;1.40;;;7.40;99.90;;;;;;4955517;29;20701;-78
2023/12/22 04:51:08;;;;;;;11.18;1.35;;;7.40;99.90;;;;;;4955716;29;20031;-79
2023/12/22 04:53:34;;;;;;;3.17;1.20;;;7.20;99.90;;;;;;4956110;29;20031;-79
2023/12/22 04:56:00;;;;;;;7.45;1.25;;;7.40;99.90;;;;;;4955936;29;20031;-78
2023/12/22 04:58:26;;;;;;;5.18;1.50;;;7.40;99.90;;;;;;4955952;29;20062;-79
2023/12/22 05:00:55;;;;;;;6.38;1.42;;;7.40;99.90;;;;;;4938506;29;20070;-79
2023/12/22 05:03:20;;;;;;;9.45;1.95;;;7.50;99.90;;;;;;4955731;29;20027;-78
2023/12/22 05:05:46;;;;;;;9.27;5.07;;;7.50;99.90;;;;;;4955653;29;20050;-78
2023/12/22 05:08:12;;;;;;;8.95;1.33;;;7.50;99.90;;;;;;4955748;29;20106;-78
2023/12/22 05:10:38;;;;;;;7.28;1.40;;;7.40;99.90;;;;;;4938102;29;20047;-78
2023/12/22 05:13:04;;;;;;;6.95;2.05;;;7.40;99.90;;;;;;4938348;29;20051;-79
2023/12/22 05:15:30;;;;;;;5.13;1.00;;;7.30;99.90;;;;;;4955699;29;20032;-78
2023/12/22 05:17:55;;;;;;;10.25;1.73;;;7.30;99.90;;;;;;4955240;29;20468;-78
2023/12/22 05:20:21;;;;;;;9.85;3.13;;;7.40;99.90;;;;;;4938333;29;20038;-78
2023/12/22 05:22:47;;;;;;;10.07;1.33;;;7.40;99.90;;;;;;4937848;29;20031;-78
2023/12/22 05:25:15;;;;;;;5.18;1.30;;;7.40;99.90;;;;;;4954539;29;20043;-79
2023/12/22 05:27:43;;;;;;;9.10;1.30;;;7.40;99.90;;;;;;4955053;29;20070;-80
2023/12/22 05:30:09;;;;;;;8.63;1.77;;;7.50;99.90;;;;;;4954949;29;20102;-78
2023/12/22 05:32:34;;;;;;;6.25;1.23;;;7.40;99.90;;;;;;4937964;29;20039;-78
2023/12/22 05:35:00;;;;;;;2.30;1.00;;;7.50;99.90;;;;;;4937663;29;20582;-79
2023/12/22 05:37:26;;;;;;;7.20;2.05;;;7.60;99.90;;;;;;4955089;29;20023;-77
2023/12/22 05:39:52;;;;;;;8.00;1.30;;;7.60;99.90;;;;;;4937222;29;20098;-78
2023/12/22 05:42:18;;;;;;;4.05;1.10;;;7.60;99.90;;;;;;4938380;29;20507;-79
2023/12/22 05:44:46;;;;;;;3.22;0.90;;;7.70;99.90;;;;;;4955033;29;20038;-79
2023/12/22 05:47:14;;;;;;;7.22;1.27;;;7.70;99.90;;;;;;4955432;29;20440;-79
2023/12/22 05:49:41;;;;;;;3.97;0.93;;;7.70;99.90;;;;;;4955178;29;20585;-79
2023/12/22 05:52:07;;;;;;;3.75;1.35;;;7.70;99.90;;;;;;4937782;29;20317;-78
2023/12/22 05:54:32;;;;;;;4.53;1.55;;;7.70;99.90;;;;;;4937201;29;20031;-80
2023/12/22 05:56:58;;;;;;;5.40;1.98;;;7.70;99.90;;;;;;4953834;28;20051;-79
2023/12/22 05:59:24;;;;;;;10.10;1.35;;;7.60;99.90;;;;;;4937463;29;20035;-79
2023/12/22 06:01:54;;;;;;;5.13;1.35;;;7.60;99.90;;;;;;4954887;29;20029;-79
2023/12/22 06:04:19;;;;;;;8.55;1.08;;;7.70;99.90;;;;;;4955107;29;20058;-79
2023/12/22 06:06:45;;;;;;;8.18;1.95;;;7.70;99.90;;;;;;4956647;29;20063;-79
2023/12/22 06:09:12;;;;;;;7.28;2.15;;;7.70;99.90;;;;;;4937127;29;20483;-79
2023/12/22 06:11:40;;;;;;;6.85;1.15;;;7.60;99.90;;;;;;4932087;29;20031;-77
2023/12/22 06:14:06;;;;;;;4.20;0.82;;;7.40;99.90;;;;;;4937388;29;20106;-79
2023/12/22 06:19:18;;;;;;;10.07;1.45;;;7.30;99.90;;;;;;4940981;29;20031;-78
2023/12/22 06:21:44;;;;;;;3.08;0.68;;;7.30;99.90;;;;;;4937529;29;20440;-78
2023/12/22 06:24:10;;;;;;;4.45;1.40;;;7.30;99.90;;;;;;4937631;29;20043;-79
2023/12/22 06:26:45;;;;;;;3.22;1.08;;;7.20;99.90;;;;;;4937161;29;20046;-79
2023/12/22 06:29:11;;;;;;;2.88;0.63;;;7.10;99.90;;;;;;4954646;29;20045;-79
2023/12/22 06:34:50;;;;;;;4.50;0.75;;;7.10;99.90;;;;;;4924155;29;20039;-79
2023/12/22 06:37:23;;;;;;;3.25;1.48;;;7.00;99.90;;;;;;4937316;29;20024;-78
2023/12/22 06:39:52;;;;;;;4.38;0.52;;;7.10;99.90;;;;;;4953734;29;20034;-79
2023/12/22 06:42:37;;;;;;;1.17;0.57;;;7.00;99.90;;;;;;4938811;29;20031;-78
2023/12/22 06:45:31;;;;;;;3.22;1.42;;;7.10;99.90;;;;;;4939274;29;20032;-79
2023/12/22 06:48:09;;;;;;;3.80;0.60;;;7.10;99.90;;;;;;4954735;29;20047;-79
2023/12/22 06:50:56;;;;;;;3.15;1.25;;;7.10;99.90;;;;;;4936812;29;20039;-80
2023/12/22 06:53:22;;;;;;;3.30;0.98;;;7.10;99.90;;;;;;4937089;29;20027;-79
2023/12/22 06:57:10;;;;;;;6.60;1.10;;;7.10;99.90;;;;;;4936376;29;20027;-79
2023/12/22 06:59:56;;;;;;;;;;;;;;;;;;;;;
2023/12/22 07:02:48;;;;;;;4.53;1.50;;;7.10;99.90;;;;;;4831406;29;20050;-78
2023/12/22 07:05:33;;;;;;;8.60;1.30;;;7.10;99.90;;;;;;4885665;29;20048;-79
2023/12/22 07:08:14;;;;;;;7.90;1.13;;;7.00;99.90;;;;;;4946709;28;20086;-79
2023/12/22 07:10:55;;;;;;;5.82;1.50;;;7.00;99.90;;;;;;4962228;29;20055;-78
2023/12/22 07:13:21;;;;;;;4.68;1.85;;;6.90;99.90;;;;;;4962825;29;20105;-79
2023/12/22 07:15:50;;;;;;;10.30;2.97;;;6.80;99.90;;;;;;4962680;29;20027;-79
2023/12/22 07:18:40;;;;;;;9.98;2.53;;;6.80;99.90;;;;;;4945395;29;20058;-78
2023/12/22 07:21:32;;;;;;;8.48;1.92;;;6.80;99.90;;;;;;4944913;29;20023;-78
2023/12/22 07:24:07;;;;;;;16.08;1.08;;;6.70;99.90;;;;;;4945262;29;20031;-78
2023/12/22 07:26:45;;;;;;;9.55;1.65;;;6.80;99.90;;;;;;4965198;29;20102;-80
2023/12/22 07:29:52;;;;;;;5.72;1.08;;;6.80;99.90;;;;;;4948754;29;20259;-78
2023/12/22 07:32:51;;;;;;;9.13;1.70;;;6.90;99.90;;;;;;4962422;29;20039;-79
2023/12/22 07:35:23;;;;;;;9.02;2.47;;;6.90;99.90;;;;;;4937660;29;20046;-78
2023/12/22 07:38:04;;;;;;;17.90;2.08;;;6.90;99.90;;;;;;4945366;29;20035;-78
2023/12/22 07:40:33;;;;;;;6.97;2.08;;;7.00;99.90;;;;;;4945205;29;20031;-78
2023/12/22 07:43:26;;;;;;;26.23;2.53;;;7.10;99.90;;;;;;4962312;29;20098;-78
2023/12/22 07:46:17;;;;;;;4.95;1.60;;;7.10;99.90;;;;;;4957715;29;20093;-79
2023/12/22 07:48:49;;;;;;;2.53;0.90;;;7.10;99.90;;;;;;4945759;29;20122;-79
2023/12/22 07:51:32;;;;;;;6.32;1.40;;;7.10;99.90;;;;;;4962917;29;20030;-79
2023/12/22 07:53:58;;;;;;;3.35;1.20;;;7.10;99.90;;;;;;4925946;29;20346;-78
2023/12/22 07:56:42;;;;;;;5.15;1.50;;;7.20;99.90;;;;;;4926330;29;20035;-78
2023/12/22 07:59:32;;;;;;;7.03;1.88;;;7.10;99.90;;;;;;4943437;29;20027;-79
2023/12/22 08:01:58;;;;;;;11.18;2.45;;;7.10;99.90;;;;;;4943375;29;20038;-79
2023/12/22 08:04:24;;;;;;;4.60;1.30;;;7.20;99.90;;;;;;4926027;29;20030;-79
2023/12/22 08:06:56;;;;;;;8.52;2.10;;;7.20;99.90;;;;;;4943042;29;20043;-79
2023/12/22 08:09:22;;;;;;;3.42;1.30;;;7.20;99.90;;;;;;4941206;29;20051;-78
2023/12/22 08:11:52;;;;;;;4.30;1.50;;;7.20;99.90;;;;;;4925524;29;20032;-78
2023/12/22 08:14:19;;;;;;;9.95;1.40;;;7.20;99.90;;;;;;4926089;29;20027;-79
2023/12/22 08:16:45;;;;;;;5.32;1.83;;;7.20;99.90;;;;;;4942962;29;20162;-79
2023/12/22 08:19:14;;;;;;;8.10;2.35;;;7.30;99.90;;;;;;4942713;29;20031;-78
2023/12/22 08:21:40;;;;;;;7.63;1.75;;;7.30;99.90;;;;;;4942807;29;20015;-78
2023/12/22 08:24:06;;;;;;;13.45;1.23;;;7.30;99.90;;;;;;4943764;29;20430;-78
2023/12/22 08:26:35;;;;;;;7.57;2.25;;;7.40;99.90;;;;;;4937991;29;20036;-78
2023/12/22 08:29:00;;;;;;;2.45;1.42;;;7.40;99.90;;;;;;4943168;29;20133;-79
2023/12/22 08:31:36;;;;;;;4.35;1.23;;;7.40;99.90;;;;;;4942693;29;20497;-78
2023/12/22 08:34:46;;;;;;;7.75;1.73;;;7.30;99.90;;;;;;4926571;29;20044;-79
2023/12/22 08:37:34;;;;;;;4.85;1.52;;;7.40;99.90;;;;;;4923467;29;20106;-77
2023/12/22 08:41:21;;;;;;;;;;;;;;;;;;;;;
2023/12/22 08:47:30;;;;;;;6.63;1.52;;;7.40;99.90;;;;;;4867200;29;20090;-78
2023/12/22 08:50:09;;;;;;;6.15;1.80;;;7.30;99.90;;;;;;4884451;29;20033;-79
2023/12/22 08:52:44;;;;;;;;;;;7.30;99.90;;;;;;4949306;29;20042;-79
2023/12/22 08:55:58;;;;;;;8.50;1.70;;;7.30;99.90;;;;;;4944281;29;20106;-79
2023/12/22 08:58:24;;;;;;;2.30;0.80;;;7.30;99.90;;;;;;4944276;29;20045;-78
2023/12/22 09:01:26;;;;;;;6.47;1.38;;;7.20;99.90;;;;;;4961627;29;20382;-78
2023/12/22 09:04:16;;;;;;;4.40;1.00;;;7.20;99.90;;;;;;4864757;29;20045;-78
2023/12/22 09:06:44;;;;;;;7.25;1.45;;;7.10;99.90;;;;;;4859651;29;20046;-78
2023/12/22 09:09:16;;;;;;;7.50;1.65;;;7.10;99.90;;;;;;4924266;29;20031;-77
2023/12/22 09:11:51;;;;;;;5.15;1.10;;;7.10;99.90;;;;;;4962116;29;20042;-79
2023/12/22 09:14:20;;;;;;;5.80;1.17;;;7.10;99.90;;;;;;4945218;29;20026;-78
2023/12/22 09:16:58;;;;;;;8.50;1.25;;;7.10;99.90;;;;;;4944407;29;20051;-78
2023/12/22 09:19:43;;;;;;;6.55;1.02;;;7.10;99.90;;;;;;4944679;29;20043;-79
2023/12/22 09:22:09;;;;;;;5.22;1.20;;;7.00;99.90;;;;;;4961846;29;20030;-79
2023/12/22 09:24:38;;;;;;;8.73;1.50;;;7.00;99.90;;;;;;4961446;29;20031;-78
2023/12/22 09:27:04;;;;;;;9.93;1.58;;;7.00;99.90;;;;;;4961659;29;20039;-78
2023/12/22 09:30:02;;;;;;;7.07;1.42;;;7.00;99.90;;;;;;4961470;29;20027;-78
2023/12/22 09:33:06;;;;;;;9.40;1.55;;;7.00;99.90;;;;;;4944860;29;20441;-79
2023/12/22 09:39:05;;;;;;;11.13;2.65;;;7.00;99.90;;;;;;4849620;29;20073;-79
2023/12/22 09:41:34;;;;;;;8.45;1.60;;;7.00;99.90;;;;;;4834400;29;20328;-78
2023/12/22 09:44:05;;;;;;;3.85;1.00;;;7.00;99.90;;;;;;4849016;29;20132;-79
2023/12/22 09:46:31;;;;;;;5.55;1.05;;;7.10;99.90;;;;;;4849865;29;20065;-79
2023/12/22 09:49:00;;;;;;;8.07;1.45;;;7.00;99.90;;;;;;4833667;29;20022;-77
2023/12/22 09:52:19;;;;;;;3.55;0.73;;;7.10;99.90;;;;;;4850707;29;20034;-77
2023/12/22 09:54:41;;;;;;;6.10;1.17;;;7.10;99.90;;;;;;4937129;29;20107;-78
2023/12/22 09:57:31;;;;;;;3.78;1.23;;;7.20;99.90;;;;;;4943831;29;20107;-78
2023/12/22 10:00:21;;;;;;;;;;;7.20;99.90;;;;;;4934155;29;20031;-79
2023/12/22 10:03:09;;;;;;;2.13;0.88;;;7.10;99.90;;;;;;4943964;29;19911;-78
2023/12/22 10:05:46;;;;;;;5.28;1.63;;;7.20;99.90;;;;;;4945430;29;20107;-79
2023/12/22 10:08:21;;;;;;;6.80;1.55;;;7.20;99.90;;;;;;4944653;29;20240;-78
2023/12/22 10:11:15;;;;;;;7.25;1.30;;;7.20;99.90;;;;;;4944598;29;20079;-78
2023/12/22 10:14:22;;;;;;;13.07;2.35;;;7.20;99.90;;;;;;4944270;29;20039;-78
2023/12/22 10:17:00;;;;;;;5.40;1.75;;;7.20;99.90;;;;;;4928656;29;20069;-78
2023/12/22 10:19:26;;;;;;;3.20;1.33;;;7.30;99.90;;;;;;4944350;29;20383;-78
2023/12/22 10:21:51;;;;;;;10.88;1.30;;;7.30;99.90;;;;;;4944537;29;20034;-78
2023/12/22 10:24:46;;;;;;;5.32;1.58;;;7.30;99.90;;;;;;4944603;29;20055;-78
2023/12/22 10:27:13;;;;;;;4.35;0.63;;;7.40;99.90;;;;;;4944245;29;20035;-78
2023/12/22 10:29:49;;;;;;;5.68;1.73;;;7.40;99.90;;;;;;4944698;29;20024;-78
2023/12/22 10:32:24;;;;;;;4.93;1.20;;;7.40;99.90;;;;;;4943127;29;20031;-79
2023/12/22 10:34:53;;;;;;;9.50;2.20;;;7.50;99.90;;;;;;4944014;29;20419;-79
2023/12/22 10:37:26;;;;;;;3.00;0.60;;;7.20;99.90;;;;;;4944715;29;20043;-79
2023/12/22 10:39:54;;;;;;;2.33;1.15;;;7.70;99.90;;;;;;4943680;29;20035;-79
2023/12/22 10:42:21;;;;;;;6.25;0.77;;;7.70;99.90;;;;;;4943394;29;20394;-80
2023/12/22 10:44:47;;;;;;;3.70;0.80;;;7.70;99.90;;;;;;4942414;29;20038;-80
2023/12/22 10:47:13;;;;;;;8.52;1.50;;;7.80;99.90;;;;;;4956536;29;20086;-79
2023/12/22 10:49:39;;;;;;;2.10;0.75;;;7.90;99.90;;;;;;4937634;29;20019;-80
2023/12/22 10:52:05;;;;;;;0.50;0.32;;;7.90;99.90;;;;;;4940446;29;20392;-80
2023/12/22 10:54:31;;;;;;;2.75;0.55;;;7.90;99.90;;;;;;4955323;29;20070;-81
2023/12/22 10:57:00;;;;;;;5.28;1.63;;;7.90;99.90;;;;;;4935705;29;20630;-80
2023/12/22 10:59:30;;;;;;;4.00;0.52;;;7.90;99.90;;;;;;4941568;29;20027;-80
2023/12/22 11:01:57;;;;;;;6.13;1.48;;;8.00;99.90;;;;;;4954012;29;20039;-79
2023/12/22 11:04:30;;;;;;;2.05;0.77;;;7.90;99.90;;;;;;4936363;29;20028;-79
2023/12/22 11:06:57;;;;;;;1.58;0.52;;;7.90;99.90;;;;;;4954070;29;20496;-80
2023/12/22 11:09:27;;;;;;;1.40;0.50;;;8.00;99.90;;;;;;4953406;29;20146;-81
2023/12/22 11:11:54;;;;;;;1.17;0.55;;;8.00;99.90;;;;;;4954684;29;20023;-81
2023/12/22 11:15:06;;;;;;;4.18;0.40;;;8.00;99.90;;;;;;4957329;29;20024;-79
2023/12/22 11:17:40;;;;;;;3.42;0.75;;;8.00;99.90;;;;;;4932877;29;20055;-80
2023/12/22 11:20:09;;;;;;;1.00;0.38;;;8.00;99.90;;;;;;4949552;29;20031;-78
2023/12/22 11:22:36;;;;;;;0.30;0.30;;;8.00;99.90;;;;;;4951235;29;20050;-82
2023/12/22 11:25:04;;;;;;;1.60;0.52;;;8.10;99.90;;;;;;4948295;29;20102;-81
2023/12/22 11:27:34;;;;;;;0.20;0.20;;;8.10;99.90;;;;;;4940234;29;20703;-80
2023/12/22 11:30:01;;;;;;;0.17;0.17;;;8.10;99.90;;;;;;4959852;29;20078;-82
2023/12/22 11:32:29;;;;;;;3.30;0.32;;;8.20;99.90;;;;;;4968027;29;20031;-82
2023/12/22 11:34:56;;;;;;;1.45;0.30;;;8.20;99.90;;;;;;4950933;29;20106;-83
2023/12/22 11:37:23;;;;;;;0.22;0.22;;;8.20;99.90;;;;;;4954613;29;20022;-81
2023/12/22 11:39:49;;;;;;;1.40;0.20;;;8.20;99.90;;;;;;4950610;29;20346;-80
2023/12/22 11:42:23;;;;;;;0.43;0.20;;;8.20;99.90;;;;;;4949793;29;20040;-79
2023/12/22 11:44:48;;;;;;;0.10;0.10;;;8.20;99.90;;;;;;4943189;29;20306;-78
2023/12/22 11:47:14;;;;;;;0.05;0.05;;;8.10;99.90;;;;;;4961111;29;20039;-80
2023/12/22 11:49:41;;;;;;;0.10;0.10;;;8.20;99.90;;;;;;4946123;29;20229;-83
2023/12/22 11:52:14;;;;;;;1.55;0.20;;;8.30;99.90;;;;;;4947261;29;20023;-78
2023/12/22 11:54:51;;;;;;;0.30;0.10;;;8.10;99.90;;;;;;4908381;29;20410;-79
2023/12/22 11:57:33;;;;;;;0.17;0.17;;;8.30;99.90;;;;;;4909777;29;20211;-79
2023/12/22 12:00:03;;;;;;;0.35;0.17;;;8.30;99.90;;;;;;4917319;29;20015;-78
2023/12/22 12:02:35;;;;;;;1.20;0.30;;;8.30;99.90;;;;;;4928566;29;20211;-79
2023/12/22 12:05:02;;;;;;;0.10;0.10;;;8.40;99.90;;;;;;4941396;29;20023;-79
2023/12/22 12:07:50;;;;;;;0.28;0.28;;;8.40;99.90;;;;;;4956155;29;20031;-79
2023/12/22 12:10:35;;;;;;;0.28;0.28;;;8.40;99.90;;;;;;4911684;29;20059;-79
2023/12/22 12:13:11;;;;;;;0.00;0.00;;;8.50;99.90;;;;;;4911228;29;20222;-79
2023/12/22 12:15:38;;;;;;;0.30;0.17;;;8.40;99.90;;;;;;4927332;29;20098;-80
2023/12/22 12:18:05;;;;;;;0.75;0.30;;;8.40;99.90;;;;;;4945686;29;20123;-79
2023/12/22 12:20:32;;;;;;;0.20;0.20;;;8.40;99.90;;;;;;4928350;29;20023;-79
2023/12/22 12:22:58;;;;;;;0.10;0.10;;;8.40;99.90;;;;;;4943855;29;20435;-79
2023/12/22 12:25:28;;;;;;;0.20;0.08;;;8.50;99.90;;;;;;4927756;29;20070;-79
2023/12/22 12:28:03;;;;;;;0.10;0.10;;;8.50;99.90;;;;;;4936223;29;20015;-81
2023/12/22 12:30:30;;;;;;;0.20;0.20;;;8.50;99.90;;;;;;4948034;29;20025;-81
2023/12/22 12:33:09;;;;;;;0.10;0.10;;;8.50;99.90;;;;;;4944049;29;20026;-80
2023/12/22 12:35:35;;;;;;;0.10;0.10;;;8.50;99.90;;;;;;4963859;29;20070;-80
2023/12/22 12:38:03;;;;;;;0.47;0.05;;;8.60;99.90;;;;;;4933003;29;20087;-80
2023/12/22 12:40:35;;;;;;;0.05;0.05;;;8.70;99.90;;;;;;4911075;29;20043;-80
2023/12/22 12:43:02;;;;;;;0.10;0.10;;;8.60;99.90;;;;;;4910103;29;20263;-81
2023/12/22 12:45:28;;;;;;;0.00;0.00;;;8.60;99.90;;;;;;4909831;29;20346;-78
2023/12/22 12:47:56;;;;;;;0.10;0.10;;;8.60;99.90;;;;;;4906759;29;20023;-79
2023/12/22 12:50:23;;;;;;;0.00;0.00;;;8.60;99.90;;;;;;4908644;29;20126;-79
2023/12/22 12:52:49;;;;;;;0.65;0.03;;;8.60;99.90;;;;;;4924713;29;20054;-80
2023/12/22 12:55:18;;;;;;;0.00;0.00;;;8.60;99.90;;;;;;4942876;29;20043;-80
2023/12/22 12:57:44;;;;;;;0.22;0.10;;;8.70;99.90;;;;;;4940369;29;20011;-80
2023/12/22 13:00:10;;;;;;;0.30;0.10;;;8.80;99.90;;;;;;4930538;29;20100;-80
2023/12/22 13:02:36;;;;;;;0.03;0.03;;;8.70;99.90;;;;;;4928828;29;20039;-79
2023/12/22 13:05:04;;;;;;;0.13;0.13;;;8.70;99.90;;;;;;4924586;29;20165;-81
2023/12/22 13:07:30;;;;;;;0.10;0.10;;;8.60;99.90;;;;;;4914456;29;20036;-79
2023/12/22 13:09:56;;;;;;;0.10;0.10;;;8.60;99.90;;;;;;4916086;29;20057;-81
2023/12/22 13:12:26;;;;;;;0.03;0.03;;;8.60;99.90;;;;;;4932552;29;20057;-80
2023/12/22 13:14:51;;;;;;;0.10;0.10;;;8.60;99.90;;;;;;4908686;29;20093;-80
2023/12/22 13:17:17;;;;;;;0.10;0.10;;;8.50;99.90;;;;;;4913210;29;20323;-79
2023/12/22 13:19:43;;;;;;;0.00;0.00;;;8.50;99.90;;;;;;4910738;29;20318;-79
2023/12/22 13:22:10;;;;;;;0.20;0.20;;;8.60;99.90;;;;;;4925681;29;21577;-79
2023/12/22 13:24:35;;;;;;;0.10;0.10;;;8.70;99.90;;;;;;4911386;29;20094;-80
2023/12/22 13:27:06;;;;;;;0.10;0.10;;;8.70;99.90;;;;;;4913967;29;20102;-80
2023/12/22 13:29:47;;;;;;;0.20;0.10;;;8.70;99.90;;;;;;4913415;29;20326;-79
2023/12/22 13:32:20;;;;;;;0.00;0.00;;;8.70;99.90;;;;;;4906221;29;20247;-81
2023/12/22 13:34:54;;;;;;;0.22;0.10;;;8.40;99.90;;;;;;4914289;29;20024;-80